Home > Products > Valid Products > TAF

000
FTUS43 KGID 310819 AAA
TAFGRI
TAF AMD
KGRI 310819Z 3108/0106 21012KT P6SM OVC050
     FM311000 19010KT 3SM -RASN BR OVC015
     FM311400 17011KT 3SM -RASN BR OVC007
     FM311700 17010KT 3SM -RASN BR OVC006
     FM010000 09008KT 3SM -RASN BR OVC006
     FM010300 36010KT 1SM -SN BR OVC003=



000
FTUS43 KGID 310819 AAA
TAFGRI
TAF AMD
KGRI 310819Z 3108/0106 21012KT P6SM OVC050
     FM311000 19010KT 3SM -RASN BR OVC015
     FM311400 17011KT 3SM -RASN BR OVC007
     FM311700 17010KT 3SM -RASN BR OVC006
     FM010000 09008KT 3SM -RASN BR OVC006
     FM010300 36010KT 1SM -SN BR OVC003=



000
FTUS43 KGID 310536
TAFGRI
TAF
KGRI 310536Z 3106/0106 21012KT P6SM OVC050
     FM310800 20011KT 4SM -RA BR OVC025
     FM311000 18010KT 3SM -RASN BR OVC015
     FM311400 17011KT 3SM -RASN BR OVC007
     FM311700 17010KT 3SM -RASN BR OVC006
     FM010000 09008KT 3SM -RASN BR OVC006
     FM010300 36010KT 1SM -SN BR OVC003=



000
FTUS43 KGID 310536
TAFGRI
TAF
KGRI 310536Z 3106/0106 21012KT P6SM OVC050
     FM310800 20011KT 4SM -RA BR OVC025
     FM311000 18010KT 3SM -RASN BR OVC015
     FM311400 17011KT 3SM -RASN BR OVC007
     FM311700 17010KT 3SM -RASN BR OVC006
     FM010000 09008KT 3SM -RASN BR OVC006
     FM010300 36010KT 1SM -SN BR OVC003=



000
FTUS43 KGID 302338
TAFGRI
TAF
KGRI 302338Z 3100/3124 19010KT P6SM OVC060
     FM310500 20010KT P6SM -RA OVC050
     FM311100 18010KT 4SM -RASN OVC025
     FM311400 17010KT 3SM -RASN BR OVC012
     FM311700 17010KT 3SM -RASN BR OVC005=



000
FTUS43 KGID 302338
TAFGRI
TAF
KGRI 302338Z 3100/3124 19010KT P6SM OVC060
     FM310500 20010KT P6SM -RA OVC050
     FM311100 18010KT 4SM -RASN OVC025
     FM311400 17010KT 3SM -RASN BR OVC012
     FM311700 17010KT 3SM -RASN BR OVC005=



000
FTUS43 KGID 301801 RRA
TAFGRI
TAF
KGRI 301801Z 3018/3118 19012KT P6SM OVC200
     FM302100 19012G19KT P6SM BKN080
     FM310300 19009KT P6SM -RA OVC050
     FM310900 19008KT 5SM -RASN OVC025
     FM311200 18008KT 2SM -SN OVC008=



000
FTUS43 KGID 301801 RRA
TAFGRI
TAF
KGRI 301801Z 3018/3118 19012KT P6SM OVC200
     FM302100 19012G19KT P6SM BKN080
     FM310300 19009KT P6SM -RA OVC050
     FM310900 19008KT 5SM -RASN OVC025
     FM311200 18008KT 2SM -SN OVC008=



000
FTUS43 KGID 301132
TAFGRI
TAF
KGRI 301132Z 3012/3112 17010KT P6SM BKN250
     FM301900 19014G20KT P6SM BKN200
     FM302300 19011KT P6SM BKN100
     FM310300 20009KT P6SM BKN040 BKN080
     FM310900 19008KT 5SM -RASN BKN025=



000
FTUS43 KGID 301132
TAFGRI
TAF
KGRI 301132Z 3012/3112 17010KT P6SM BKN250
     FM301900 19014G20KT P6SM BKN200
     FM302300 19011KT P6SM BKN100
     FM310300 20009KT P6SM BKN040 BKN080
     FM310900 19008KT 5SM -RASN BKN025=



000
FTUS43 KGID 300533
TAFGRI
TAF
KGRI 300533Z 3006/3106 VRB06KT P6SM BKN250
     FM301400 17010KT P6SM BKN200
     FM301900 19014G20KT P6SM BKN200
     FM302300 19011KT P6SM OVC080
     FM310300 19010KT P6SM BKN040 BKN080=



000
FTUS43 KGID 300533
TAFGRI
TAF
KGRI 300533Z 3006/3106 VRB06KT P6SM BKN250
     FM301400 17010KT P6SM BKN200
     FM301900 19014G20KT P6SM BKN200
     FM302300 19011KT P6SM OVC080
     FM310300 19010KT P6SM BKN040 BKN080=



000
FTUS43 KGID 292335
TAFGRI
TAF
KGRI 292335Z 3000/3024 17011KT P6SM SCT250
     FM301700 19012G20KT P6SM BKN200
     FM302200 19011KT P6SM OVC080=



000
FTUS43 KGID 291720
TAFGRI
TAF
KGRI 291720Z 2918/3018 34017G23KT P6SM SCT035
     FM292200 33011KT P6SM SKC
     FM300400 VRB06KT P6SM FEW250
     FM301500 18010KT P6SM SCT200=



000
FTUS43 KGID 291720
TAFGRI
TAF
KGRI 291720Z 2918/3018 34017G23KT P6SM SCT035
     FM292200 33011KT P6SM SKC
     FM300400 VRB06KT P6SM FEW250
     FM301500 18010KT P6SM SCT200=



000
FTUS43 KGID 291631 AAA
TAFGRI
TAF AMD
KGRI 291631Z 2917/3012 34022G30KT P6SM OVC035
     FM291800 34017G23KT P6SM SCT035
     FM292200 33012KT P6SM SKC
     FM300400 VRB06KT P6SM FEW250=



000
FTUS43 KGID 291129
TAFGRI
TAF
KGRI 291129Z 2912/3012 34024G32KT P6SM OVC030
      TEMPO 2912/2916 BKN035
     FM291800 34017G23KT P6SM SCT035
     FM292200 33012KT P6SM SKC
     FM300400 VRB06KT P6SM FEW250=



000
FTUS43 KGID 291129
TAFGRI
TAF
KGRI 291129Z 2912/3012 34024G32KT P6SM OVC030
      TEMPO 2912/2916 BKN035
     FM291800 34017G23KT P6SM SCT035
     FM292200 33012KT P6SM SKC
     FM300400 VRB06KT P6SM FEW250=



000
FTUS43 KGID 290530
TAFGRI
TAF
KGRI 290530Z 2906/3006 34025G33KT P6SM OVC022
     FM290900 34024G32KT P6SM OVC015
     FM292000 34014G22KT P6SM SCT022
     FM292300 34010KT P6SM SKC=



000
FTUS43 KGID 290530
TAFGRI
TAF
KGRI 290530Z 2906/3006 34025G33KT P6SM OVC022
     FM290900 34024G32KT P6SM OVC015
     FM292000 34014G22KT P6SM SCT022
     FM292300 34010KT P6SM SKC=



000
FTUS43 KGID 290529
TAFGRI
TAF
KGRI 290529Z 2906/3006 34026G35KT P6SM OVC015
     FM291200 34022G29KT P6SM BKN015
     FM291600 34018G24KT P6SM SCT015
     FM292200 34010KT P6SM SKC=



000
FTUS43 KGID 290529
TAFGRI
TAF
KGRI 290529Z 2906/3006 34026G35KT P6SM OVC015
     FM291200 34022G29KT P6SM BKN015
     FM291600 34018G24KT P6SM SCT015
     FM292200 34010KT P6SM SKC=



000
FTUS43 KGID 282339
TAFGRI
TAF
KGRI 282339Z 2900/2924 32015KT P6SM FEW250
     FM290100 33024G32KT P6SM BKN200
     FM290800 34027G35KT P6SM OVC035
     FM291100 34024G31KT P6SM BKN015
     FM292200 34013KT P6SM SKC=



000
FTUS43 KGID 282339
TAFGRI
TAF
KGRI 282339Z 2900/2924 32015KT P6SM FEW250
     FM290100 33024G32KT P6SM BKN200
     FM290800 34027G35KT P6SM OVC035
     FM291100 34024G31KT P6SM BKN015
     FM292200 34013KT P6SM SKC=



000
FTUS43 KGID 281720
TAFGRI
TAF
KGRI 281720Z 2818/2918 30011KT P6SM BKN200
     FM281900 31019G26KT P6SM SCT250
     FM290200 33026G34KT P6SM SCT025 BKN050
     FM290500 34029G38KT P6SM BKN025
     FM291100 34024G32KT P6SM SCT025 BKN040=



000
FTUS43 KGID 281720
TAFGRI
TAF
KGRI 281720Z 2818/2918 30011KT P6SM BKN200
     FM281900 31019G26KT P6SM SCT250
     FM290200 33026G34KT P6SM SCT025 BKN050
     FM290500 34029G38KT P6SM BKN025
     FM291100 34024G32KT P6SM SCT025 BKN040=



000
FTUS43 KGID 281131
TAFGRI
TAF
KGRI 281131Z 2812/2912 VRB04KT P6SM SCT250
     FM281500 28012KT P6SM SCT250
     FM281900 32019G26KT P6SM SCT250
     FM290200 33026G34KT P6SM FEW025 SCT080
     FM290700 34025G32KT P6SM BKN025=



000
FTUS43 KGID 281131
TAFGRI
TAF
KGRI 281131Z 2812/2912 VRB04KT P6SM SCT250
     FM281500 28012KT P6SM SCT250
     FM281900 32019G26KT P6SM SCT250
     FM290200 33026G34KT P6SM FEW025 SCT080
     FM290700 34025G32KT P6SM BKN025=



    US Dept of Commerce
    National Oceanic and Atmospheric Administration
    National Weather Service
    1325 East West Highway
    Silver Spring, MD 20910
    Page Author: NWS Internet Services Team
Disclaimer
Information Quality
Credits
Glossary
Privacy Policy
Freedom of Information Act (FOIA)
About Us
Career Opportunities